Time;durP1;ratioP1;P1;durP2;ratioP2;P2;SDS_P1;SDS_P2;PMS_P1;PMS_P2;Temp;Humidity;BMP_temperature;BMP_pressure;BME280_temperature;BME280_humidity;BME280_pressure;Samples;Min_cycle;Max_cycle;Signal;HPM_P1;HPM_P2
2022/11/26 00:01:13;;;;;;;20.48;6.43;;;;;;;4.96;100.00;102320.38;4984661;28;20065;-78
2022/11/26 00:03:38;;;;;;;20.88;6.75;;;;;;;4.99;100.00;102329.66;5002840;28;20168;-77
2022/11/26 00:06:04;;;;;;;23.25;7.05;;;;;;;4.97;100.00;102326.34;4985021;28;20049;-78
2022/11/26 00:08:34;;;;;;;30.02;6.18;;;;;;;4.96;100.00;102329.84;5003032;28;20041;-78
2022/11/26 00:11:01;;;;;;;20.83;6.35;;;;;;;4.93;100.00;102337.72;5016633;28;20044;-77
2022/11/26 00:13:28;;;;;;;23.55;5.93;;;;;;;4.92;100.00;102342.03;5018940;28;20116;-78
2022/11/26 00:15:55;;;;;;;28.08;6.93;;;;;;;4.91;100.00;102344.69;5001811;28;20041;-78
2022/11/26 00:18:25;;;;;;;22.00;6.32;;;;;;;4.88;100.00;102345.69;5002668;28;20466;-78
2022/11/26 00:20:55;;;;;;;25.20;6.72;;;;;;;4.87;100.00;102344.00;5020150;28;20072;-78
2022/11/26 00:23:23;;;;;;;16.48;5.72;;;;;;;4.85;100.00;102349.22;5007088;28;20036;-78
2022/11/26 00:25:53;;;;;;;26.23;7.82;;;;;;;4.84;100.00;102350.16;5005451;28;20049;-78
2022/11/26 00:28:29;;;;;;;26.00;6.63;;;;;;;4.82;100.00;102354.53;5012019;28;20116;-78
2022/11/26 00:30:56;;;;;;;16.20;5.38;;;;;;;4.80;100.00;102360.66;5012056;28;20042;-78
2022/11/26 00:33:23;;;;;;;15.77;5.97;;;;;;;4.75;100.00;102360.91;4986949;28;20041;-78
2022/11/26 00:35:51;;;;;;;20.83;7.55;;;;;;;4.69;100.00;102361.25;5014593;28;20057;-78
2022/11/26 00:38:19;;;;;;;27.73;6.80;;;;;;;4.66;100.00;102371.66;4987287;28;20037;-78
2022/11/26 00:40:45;;;;;;;24.15;7.32;;;;;;;4.64;100.00;102369.16;5020386;28;20061;-78
2022/11/26 00:43:11;;;;;;;23.85;6.93;;;;;;;4.64;100.00;102371.75;4999846;28;20208;-78
2022/11/26 00:45:37;;;;;;;18.40;6.25;;;;;;;4.64;100.00;102373.47;5017987;28;20064;-78
2022/11/26 00:48:02;;;;;;;27.50;6.53;;;;;;;4.64;100.00;102376.06;5002760;28;20038;-78
2022/11/26 00:50:35;;;;;;;25.90;7.80;;;;;;;4.63;100.00;102380.38;5018517;28;20041;-78
2022/11/26 00:53:01;;;;;;;20.88;6.72;;;;;;;4.63;100.00;102390.66;5004964;28;20709;-78
2022/11/26 00:55:38;;;;;;;30.02;7.68;;;;;;;4.63;100.00;102395.78;5018173;28;20450;-78
2022/11/26 00:58:05;;;;;;;27.23;7.57;;;;;;;4.65;100.00;102390.53;4988054;28;20118;-78
2022/11/26 01:00:33;;;;;;;26.58;7.45;;;;;;;4.65;100.00;102399.09;5019476;28;20049;-78
2022/11/26 01:02:58;;;;;;;26.52;7.65;;;;;;;4.65;100.00;102400.81;5021296;28;20026;-78
2022/11/26 01:05:29;;;;;;;29.70;7.68;;;;;;;4.66;100.00;102398.19;5019815;28;20048;-78
2022/11/26 01:07:58;;;;;;;32.58;8.43;;;;;;;4.68;100.00;102398.09;5005072;28;20021;-78
2022/11/26 01:10:26;;;;;;;36.47;8.43;;;;;;;4.66;100.00;102397.38;5002452;28;20120;-78
2022/11/26 01:12:52;;;;;;;25.40;7.35;;;;;;;4.66;100.00;102397.38;5002887;28;20038;-78
2022/11/26 01:15:20;;;;;;;24.10;7.70;;;;;;;4.64;100.00;102392.28;5015282;28;20041;-78
2022/11/26 01:17:46;;;;;;;26.27;8.07;;;;;;;4.62;100.00;102395.88;5020736;28;20477;-78
2022/11/26 01:20:21;;;;;;;28.38;9.38;;;;;;;4.61;100.00;102401.91;5002227;28;20045;-78
2022/11/26 01:22:48;;;;;;;29.23;8.93;;;;;;;4.63;100.00;102397.50;5001968;28;20038;-78
2022/11/26 01:25:14;;;;;;;30.52;8.10;;;;;;;4.61;100.00;102407.03;4998393;28;20060;-78
2022/11/26 01:27:39;;;;;;;29.90;7.90;;;;;;;4.58;100.00;102413.16;5005610;28;20052;-78
2022/11/26 01:30:24;;;;;;;27.83;8.18;;;;;;;4.59;100.00;102414.00;4991514;28;20033;-78
2022/11/26 01:32:49;;;;;;;25.50;7.32;;;;;;;4.55;100.00;102415.88;5021420;28;20044;-79
2022/11/26 01:35:16;;;;;;;24.92;8.88;;;;;;;4.54;100.00;102415.97;5005809;28;20033;-78
2022/11/26 01:37:42;;;;;;;25.63;8.15;;;;;;;4.56;100.00;102422.69;5021088;28;20033;-79
2022/11/26 01:40:34;;;;;;;37.70;9.10;;;;;;;4.55;100.00;102423.59;5021066;28;20036;-79
2022/11/26 01:43:05;;;;;;;29.10;8.43;;;;;;;4.54;100.00;102431.38;5020100;28;20080;-79
2022/11/26 01:45:31;;;;;;;30.88;9.55;;;;;;;4.51;100.00;102424.66;5001898;28;20045;-79
2022/11/26 01:47:56;;;;;;;30.58;8.85;;;;;;;4.54;100.00;102421.09;5022052;28;20470;-79
2022/11/26 01:50:30;;;;;;;24.00;8.63;;;;;;;4.51;100.00;102424.66;5020295;28;20041;-79
2022/11/26 01:53:10;;;;;;;26.52;8.65;;;;;;;4.45;100.00;102417.25;4987563;28;20084;-78
2022/11/26 01:55:49;;;;;;;23.88;8.60;;;;;;;4.40;100.00;102422.63;4985218;28;20095;-78
2022/11/26 01:58:19;;;;;;;21.08;8.10;;;;;;;4.36;100.00;102420.28;4988632;28;20045;-79
2022/11/26 02:00:46;;;;;;;24.63;8.80;;;;;;;4.36;100.00;102413.41;4989607;28;20655;-79
2022/11/26 02:03:12;;;;;;;20.33;8.10;;;;;;;4.31;100.00;102423.06;5005311;28;20116;-79
2022/11/26 02:05:42;;;;;;;24.52;7.85;;;;;;;4.22;100.00;102414.09;4987754;28;20038;-78
2022/11/26 02:08:09;;;;;;;20.52;6.93;;;;;;;4.21;100.00;102416.72;5003926;28;20544;-78
2022/11/26 02:10:35;;;;;;;27.77;9.18;;;;;;;4.24;100.00;102414.03;5007179;28;20073;-79
2022/11/26 02:13:00;;;;;;;24.02;8.52;;;;;;;4.24;100.00;102409.72;4989903;28;20083;-79
2022/11/26 02:15:32;;;;;;;26.58;8.98;;;;;;;4.21;100.00;102411.59;5019997;28;20562;-79
2022/11/26 02:18:04;;;;;;;25.92;7.78;;;;;;;4.17;100.00;102407.53;5004513;28;20470;-79
2022/11/26 02:20:48;;;;;;;31.40;8.77;;;;;;;4.16;100.00;102411.81;5017427;28;20048;-79
2022/11/26 02:23:36;;;;;;;28.25;8.50;;;;;;;4.14;100.00;102405.09;5004150;28;20461;-79
2022/11/26 02:26:19;;;;;;;26.58;8.80;;;;;;;4.17;100.00;102410.09;5002396;28;20341;-79
2022/11/26 02:29:00;;;;;;;25.42;8.40;;;;;;;4.16;100.00;102408.41;5007564;28;20080;-79
2022/11/26 02:31:43;;;;;;;18.55;7.78;;;;;;;4.08;100.00;102407.03;4987098;28;20509;-79
2022/11/26 02:34:11;;;;;;;30.58;8.52;;;;;;;4.07;100.00;102402.00;5003966;28;20089;-79
2022/11/26 02:36:57;;;;;;;27.88;8.57;;;;;;;4.13;100.00;102401.72;5003297;28;20409;-79
2022/11/26 02:39:24;;;;;;;22.08;8.65;;;;;;;4.07;100.00;102414.84;5003256;28;20095;-80
2022/11/26 02:41:54;;;;;;;33.40;9.13;;;;;;;4.06;100.00;102414.00;5002067;28;20567;-79
2022/11/26 02:44:25;;;;;;;36.33;9.48;;;;;;;4.11;100.00;102416.34;4989732;28;20090;-79
2022/11/26 02:47:01;;;;;;;28.77;10.05;;;;;;;4.09;100.00;102416.44;5005962;28;20049;-79
2022/11/26 02:49:28;;;;;;;34.95;8.95;;;;;;;4.09;100.00;102411.28;5005120;28;20040;-79
2022/11/26 02:51:57;;;;;;;31.05;9.65;;;;;;;4.11;100.00;102411.22;5023084;28;20049;-79
2022/11/26 02:54:23;;;;;;;32.03;9.05;;;;;;;4.08;100.00;102416.50;5024579;28;20359;-79
2022/11/26 02:56:50;;;;;;;35.75;10.20;;;;;;;4.10;100.00;102417.25;5008042;28;20055;-79
2022/11/26 02:59:16;;;;;;;42.00;11.25;;;;;;;4.10;100.00;102418.06;5005997;28;20442;-81
2022/11/26 03:01:56;;;;;;;31.75;9.90;;;;;;;4.09;100.00;102413.03;5005358;28;20037;-80
2022/11/26 03:04:26;;;;;;;34.95;8.85;;;;;;;4.07;100.00;102418.25;5006144;28;20519;-79
2022/11/26 03:06:55;;;;;;;24.20;9.05;;;;;;;4.13;100.00;102424.00;5007090;28;20037;-79
2022/11/26 03:09:22;;;;;;;31.02;10.45;;;;;;;4.10;100.00;102420.63;5021848;28;20029;-79
2022/11/26 03:11:47;;;;;;;42.75;10.43;;;;;;;4.17;100.00;102426.31;5024796;28;20095;-79
2022/11/26 03:14:13;;;;;;;34.42;10.57;;;;;;;4.13;100.00;102437.66;5005749;28;20049;-79
2022/11/26 03:16:38;;;;;;;42.92;11.85;;;;;;;4.23;100.00;102443.16;5004609;28;20049;-80
2022/11/26 03:19:03;;;;;;;37.58;10.48;;;;;;;4.16;100.00;102437.47;5008593;28;20401;-80
2022/11/26 03:21:31;;;;;;;32.55;8.68;;;;;;;4.10;100.00;102440.34;5020292;28;20046;-80
2022/11/26 03:23:56;;;;;;;25.00;9.98;;;;;;;4.07;100.00;102445.66;5024866;28;20235;-79
2022/11/26 03:26:22;;;;;;;26.60;9.63;;;;;;;4.04;100.00;102446.63;5005707;28;20560;-80
2022/11/26 03:28:48;;;;;;;36.60;9.57;;;;;;;4.08;100.00;102455.81;4991450;28;20036;-80
2022/11/26 03:31:13;;;;;;;31.13;9.32;;;;;;;4.03;100.00;102450.09;4994955;28;20046;-79
2022/11/26 03:33:39;;;;;;;25.95;9.07;;;;;;;4.01;100.00;102453.63;5004162;28;20053;-79
2022/11/26 03:36:04;;;;;;;36.15;9.50;;;;;;;4.02;100.00;102458.69;5024817;28;20045;-79
2022/11/26 03:38:30;;;;;;;29.35;9.88;;;;;;;4.04;100.00;102454.31;5023616;28;20529;-80
2022/11/26 03:41:00;;;;;;;26.85;9.63;;;;;;;4.05;100.00;102466.25;5020720;28;20042;-80
2022/11/26 03:43:26;;;;;;;29.45;8.90;;;;;;;4.05;100.00;102470.53;5008162;28;20060;-80
2022/11/26 03:45:51;;;;;;;26.25;8.55;;;;;;;4.03;100.00;102474.91;5008849;28;20409;-80
2022/11/26 03:48:17;;;;;;;26.30;8.13;;;;;;;4.00;100.00;102478.47;5005616;28;20437;-79
2022/11/26 03:50:42;;;;;;;31.13;8.98;;;;;;;3.96;100.00;102483.84;5004243;28;20402;-80
2022/11/26 03:53:08;;;;;;;25.42;9.05;;;;;;;3.94;100.00;102486.47;4995124;28;20029;-79
2022/11/26 03:55:33;;;;;;;26.70;8.48;;;;;;;3.92;100.00;102488.28;5017784;28;20046;-80
2022/11/26 03:57:59;;;;;;;37.17;9.75;;;;;;;4.05;100.00;102493.66;4996919;28;20041;-80
2022/11/26 04:00:25;;;;;;;28.52;9.48;;;;;;;4.10;100.00;102499.41;5000897;28;20041;-81
2022/11/26 04:02:50;;;;;;;35.95;10.23;;;;;;;4.14;100.00;102498.34;5013595;28;20037;-80
2022/11/26 04:05:15;;;;;;;33.75;10.45;;;;;;;4.16;100.00;102504.25;4999121;28;20068;-80
2022/11/26 04:07:41;;;;;;;37.65;8.73;;;;;;;4.10;100.00;102495.09;4999318;28;20037;-80
2022/11/26 04:10:07;;;;;;;30.80;8.90;;;;;;;4.08;100.00;102504.59;4988164;28;20048;-80
2022/11/26 04:12:33;;;;;;;38.63;9.75;;;;;;;4.12;100.00;102502.72;5013183;28;20092;-80
2022/11/26 04:14:58;;;;;;;28.98;9.32;;;;;;;4.07;100.00;102509.84;4996604;28;20037;-80
2022/11/26 04:17:23;;;;;;;32.92;10.32;;;;;;;4.07;100.00;102509.84;4986570;28;20057;-80
2022/11/26 04:19:49;;;;;;;30.15;9.18;;;;;;;4.02;100.00;102512.59;4997437;28;20449;-80
2022/11/26 04:22:15;;;;;;;36.95;10.38;;;;;;;4.05;100.00;102517.59;4986033;28;20273;-80
2022/11/26 04:24:40;;;;;;;30.48;8.95;;;;;;;4.02;100.00;102522.88;5003056;28;20025;-80
2022/11/26 04:27:06;;;;;;;24.10;8.18;;;;;;;3.99;100.00;102530.69;4998856;28;20402;-80
2022/11/26 04:29:31;;;;;;;25.85;8.05;;;;;;;3.98;100.00;102525.66;4985577;28;20406;-80
2022/11/26 04:31:57;;;;;;;38.30;11.55;;;;;;;4.03;100.00;102526.25;5004326;28;20049;-80
2022/11/26 04:34:22;;;;;;;29.20;8.40;;;;;;;4.05;100.00;102527.88;5003780;28;20044;-80
2022/11/26 04:36:48;;;;;;;33.67;9.55;;;;;;;3.99;100.00;102525.56;5001805;28;20358;-80
2022/11/26 04:39:13;;;;;;;28.60;9.07;;;;;;;3.96;100.00;102528.28;5017297;28;20030;-80
2022/11/26 04:41:39;;;;;;;32.88;9.40;;;;;;;3.92;100.00;102539.63;5000293;28;20045;-80
2022/11/26 04:44:04;;;;;;;25.08;7.20;;;;;;;3.89;100.00;102526.91;4999678;28;20752;-80
2022/11/26 04:46:30;;;;;;;36.35;9.52;;;;;;;3.86;100.00;102538.16;5004282;28;20060;-80
2022/11/26 04:48:55;;;;;;;36.38;9.07;;;;;;;3.97;100.00;102544.53;5008166;28;20060;-80
2022/11/26 04:51:20;;;;;;;39.10;9.88;;;;;;;4.06;100.00;102534.66;5002765;28;20056;-80
2022/11/26 04:53:46;;;;;;;26.63;10.15;;;;;;;3.99;100.00;102551.25;4983573;28;20030;-80
2022/11/26 04:56:11;;;;;;;36.55;8.30;;;;;;;3.97;100.00;102541.97;5000200;28;20053;-80
2022/11/26 04:58:37;;;;;;;34.05;9.07;;;;;;;3.92;100.00;102547.31;5018022;28;20405;-80
2022/11/26 05:01:02;;;;;;;31.27;9.57;;;;;;;3.86;100.00;102547.56;5015314;28;20045;-79
2022/11/26 05:03:28;;;;;;;31.52;8.80;;;;;;;3.92;100.00;102552.44;4984934;28;20013;-80
2022/11/26 05:05:53;;;;;;;32.80;8.80;;;;;;;3.86;100.00;102561.25;5018591;28;20053;-80
2022/11/26 05:08:19;;;;;;;27.50;9.18;;;;;;;3.86;100.00;102558.69;4998560;28;20025;-80
2022/11/26 05:10:44;;;;;;;28.13;8.48;;;;;;;3.87;100.00;102568.03;4981520;28;20565;-80
2022/11/26 05:13:09;;;;;;;28.83;8.68;;;;;;;3.86;100.00;102560.41;4990909;28;20481;-80
2022/11/26 05:15:35;;;;;;;28.35;9.63;;;;;;;3.87;100.00;102564.66;5019601;28;20486;-80
2022/11/26 05:18:00;;;;;;;30.77;9.70;;;;;;;3.85;100.00;102567.28;4984848;28;20036;-80
2022/11/26 05:20:26;;;;;;;28.13;9.25;;;;;;;3.83;100.00;102568.25;5020414;28;20072;-80
2022/11/26 05:22:51;;;;;;;29.73;8.60;;;;;;;3.80;100.00;102565.81;4996586;28;20486;-80
2022/11/26 05:25:17;;;;;;;26.02;7.88;;;;;;;3.69;100.00;102567.16;5022224;28;20413;-81
2022/11/26 05:27:42;;;;;;;20.88;7.63;;;;;;;3.65;100.00;102565.59;5022874;28;20040;-80
2022/11/26 05:30:08;;;;;;;26.30;8.93;;;;;;;3.61;100.00;102563.25;5002543;28;20040;-81
2022/11/26 05:32:34;;;;;;;29.05;8.55;;;;;;;3.59;100.00;102570.19;5006497;28;20048;-81
2022/11/26 05:34:59;;;;;;;28.77;8.40;;;;;;;3.54;100.00;102572.94;4987087;28;20040;-80
2022/11/26 05:37:24;;;;;;;29.98;11.00;;;;;;;3.55;100.00;102573.78;5004936;28;20489;-81
2022/11/26 05:39:50;;;;;;;26.08;9.20;;;;;;;3.49;100.00;102574.88;4999012;28;20042;-81
2022/11/26 05:42:15;;;;;;;26.00;9.77;;;;;;;3.45;100.00;102581.88;4986271;28;20038;-81
2022/11/26 05:44:41;;;;;;;25.90;8.40;;;;;;;3.42;100.00;102579.44;5001000;28;20481;-80
2022/11/26 05:47:06;;;;;;;29.52;10.00;;;;;;;3.39;100.00;102577.00;4985660;28;20334;-80
2022/11/26 05:49:32;;;;;;;38.08;9.05;;;;;;;3.37;100.00;102578.81;5000701;28;20033;-81
2022/11/26 05:51:57;;;;;;;36.13;11.13;;;;;;;3.37;100.00;102581.38;5014105;28;21348;-80
2022/11/26 05:54:23;;;;;;;21.73;8.20;;;;;;;3.35;100.00;102584.88;4987649;28;20650;-81
2022/11/26 05:56:48;;;;;;;32.78;10.38;;;;;;;3.37;100.00;102580.53;4986572;28;20452;-81
2022/11/26 05:59:14;;;;;;;30.15;9.10;;;;;;;3.33;100.00;102577.25;5016465;28;20045;-81
2022/11/26 06:01:39;;;;;;;33.38;9.90;;;;;;;3.32;100.00;102583.28;5013657;28;20065;-81
2022/11/26 06:04:04;;;;;;;26.20;9.60;;;;;;;3.29;100.00;102581.69;4990038;28;20033;-80
2022/11/26 06:06:30;;;;;;;34.55;9.93;;;;;;;3.27;100.00;102585.22;5015701;28;20041;-80
2022/11/26 06:08:55;;;;;;;23.95;10.27;;;;;;;3.27;100.00;102585.22;5005209;28;20040;-80
2022/11/26 06:11:21;;;;;;;28.42;9.02;;;;;;;3.24;100.00;102586.19;4998640;28;20108;-81
2022/11/26 06:13:46;;;;;;;32.35;9.82;;;;;;;3.21;100.00;102595.75;4995499;28;20568;-79
2022/11/26 06:16:12;;;;;;;35.05;10.05;;;;;;;3.18;100.00;102590.72;4999871;28;20045;-81
2022/11/26 06:18:38;;;;;;;29.45;9.73;;;;;;;3.14;100.00;102594.31;5001241;28;20021;-81
2022/11/26 06:21:05;;;;;;;29.92;9.85;;;;;;;3.11;100.00;102595.28;4986616;28;20050;-80
2022/11/26 06:23:32;;;;;;;28.33;9.30;;;;;;;3.08;100.00;102596.22;5004349;28;20068;-81
2022/11/26 06:25:58;;;;;;;27.98;9.25;;;;;;;3.06;100.00;102594.63;4989502;28;20144;-81
2022/11/26 06:28:23;;;;;;;24.25;8.25;;;;;;;3.03;100.00;102594.75;5025344;28;20143;-81
2022/11/26 06:30:49;;;;;;;28.48;9.07;;;;;;;3.01;100.00;102597.38;4992507;28;20567;-81
2022/11/26 06:33:14;;;;;;;23.15;8.60;;;;;;;2.98;100.00;102594.97;5003596;28;20042;-81
2022/11/26 06:35:39;;;;;;;20.48;8.15;;;;;;;2.91;100.00;102596.91;4993871;28;20049;-81
2022/11/26 06:38:05;;;;;;;29.05;10.80;;;;;;;2.95;100.00;102600.19;5005358;28;20037;-81
2022/11/26 06:40:30;;;;;;;28.55;11.30;;;;;;;2.87;100.00;102603.06;5019221;28;20525;-81
2022/11/26 06:42:56;;;;;;;30.08;10.48;;;;;;;2.84;100.00;102607.47;5006546;28;20230;-81
2022/11/26 06:45:22;;;;;;;34.13;10.23;;;;;;;2.81;100.00;102607.63;5002287;28;20033;-81
2022/11/26 06:47:50;;;;;;;21.48;9.48;;;;;;;2.80;100.00;102609.34;4989738;28;20041;-81
2022/11/26 06:50:17;;;;;;;30.35;9.65;;;;;;;2.80;100.00;102613.63;4990833;28;20033;-80
2022/11/26 06:52:43;;;;;;;28.02;10.50;;;;;;;2.79;100.00;102620.50;5005251;28;20041;-80
2022/11/26 06:55:08;;;;;;;24.83;9.40;;;;;;;2.77;100.00;102622.28;5005147;28;20398;-81
2022/11/26 06:57:34;;;;;;;22.25;10.27;;;;;;;2.75;100.00;102631.75;4996412;28;20069;-80
2022/11/26 06:59:59;;;;;;;35.03;10.05;;;;;;;2.73;100.00;102631.81;5016819;28;20228;-80
2022/11/26 07:02:25;;;;;;;24.45;10.82;;;;;;;2.75;100.00;102633.47;5004977;28;20041;-79
2022/11/26 07:04:50;;;;;;;26.05;10.10;;;;;;;2.74;100.00;102648.00;4986367;28;20037;-81
2022/11/26 07:07:16;;;;;;;37.40;12.15;;;;;;;2.77;100.00;102645.34;5016228;28;20041;-81
2022/11/26 07:09:41;;;;;;;35.85;12.45;;;;;;;2.82;100.00;102645.97;5001639;28;20040;-80
2022/11/26 07:12:07;;;;;;;26.65;10.38;;;;;;;2.81;100.00;102646.06;5018363;28;20393;-81
2022/11/26 07:14:32;;;;;;;27.88;10.57;;;;;;;2.80;100.00;102641.81;5005429;28;20049;-81
2022/11/26 07:16:58;;;;;;;25.02;11.00;;;;;;;2.78;100.00;102649.56;5007606;28;20050;-80
2022/11/26 07:19:23;;;;;;;27.90;11.10;;;;;;;2.78;100.00;102658.97;5001676;28;20041;-80
2022/11/26 07:21:49;;;;;;;29.35;11.85;;;;;;;2.77;100.00;102655.59;5006646;28;20053;-80
2022/11/26 07:24:14;;;;;;;31.35;11.52;;;;;;;2.78;100.00;102662.38;5001027;28;20105;-80
2022/11/26 07:26:40;;;;;;;36.53;13.15;;;;;;;2.85;100.00;102662.97;5001487;28;20046;-80
2022/11/26 07:29:05;;;;;;;31.08;12.68;;;;;;;2.88;100.00;102661.13;4998398;28;20037;-81
2022/11/26 07:31:31;;;;;;;36.35;13.10;;;;;;;2.91;100.00;102663.56;5004598;28;20041;-81
2022/11/26 07:33:56;;;;;;;31.85;12.05;;;;;;;2.93;100.00;102668.63;4989973;28;20598;-82
2022/11/26 07:36:25;;;;;;;34.95;13.85;;;;;;;2.98;100.00;102660.78;5007504;28;20029;-82
2022/11/26 07:38:53;;;;;;;37.40;13.18;;;;;;;3.04;100.00;102652.81;5005151;28;20039;-82
2022/11/26 07:41:19;;;;;;;36.45;13.85;;;;;;;3.02;100.00;102654.63;4986421;28;20561;-82
2022/11/26 07:43:44;;;;;;;38.95;14.90;;;;;;;3.19;100.00;102654.75;4985083;28;20022;-81
2022/11/26 07:46:13;;;;;;;35.53;13.70;;;;;;;3.15;100.00;102652.41;5003722;28;20124;-82
2022/11/26 07:48:39;;;;;;;41.35;14.15;;;;;;;3.19;100.00;102653.94;5017565;28;20039;-81
2022/11/26 07:51:06;;;;;;;42.88;13.52;;;;;;;3.26;100.00;102651.06;5002385;28;20033;-80
2022/11/26 07:53:34;;;;;;;40.85;13.70;;;;;;;3.37;100.00;102658.31;5023015;28;20037;-79
2022/11/26 07:56:04;;;;;;;40.20;14.05;;;;;;;3.46;100.00;102668.16;5002277;28;20049;-80
2022/11/26 07:58:29;;;;;;;43.28;13.30;;;;;;;3.50;100.00;102664.59;5007066;28;20083;-82
2022/11/26 08:00:54;;;;;;;34.15;12.98;;;;;;;3.40;100.00;102659.91;5001595;28;20041;-82
2022/11/26 08:03:20;;;;;;;37.03;12.90;;;;;;;3.37;100.00;102666.00;5023396;28;20030;-81
2022/11/26 08:05:45;;;;;;;37.58;13.35;;;;;;;3.37;100.00;102667.72;5007018;28;20086;-81
2022/11/26 08:08:11;;;;;;;35.97;13.02;;;;;;;3.39;100.00;102660.78;5021487;28;20516;-81
2022/11/26 08:10:37;;;;;;;35.05;13.65;;;;;;;3.39;100.00;102669.34;4991533;28;20037;-81
2022/11/26 08:13:03;;;;;;;41.60;13.43;;;;;;;3.40;100.00;102663.31;5024061;28;20444;-81
2022/11/26 08:15:29;;;;;;;40.67;14.18;;;;;;;3.55;100.00;102661.81;5004917;28;20045;-81
2022/11/26 08:17:58;;;;;;;37.10;14.30;;;;;;;3.52;100.00;102661.94;4987978;28;20520;-82
2022/11/26 08:20:24;;;;;;;42.97;14.27;;;;;;;3.61;100.00;102665.88;5001366;28;20044;-81
2022/11/26 08:22:50;;;;;;;33.38;13.10;;;;;;;3.63;100.00;102671.75;5008451;28;20041;-81
2022/11/26 08:25:16;;;;;;;52.20;14.10;;;;;;;3.59;100.00;102676.19;5022378;28;20104;-81
2022/11/26 08:27:41;;;;;;;30.50;12.00;;;;;;;3.61;100.00;102682.09;5021455;28;20038;-81
2022/11/26 08:30:07;;;;;;;45.20;14.18;;;;;;;3.69;100.00;102677.47;5005019;28;20088;-81
2022/11/26 08:32:33;;;;;;;38.42;14.27;;;;;;;3.74;100.00;102677.28;4990509;28;20060;-81
2022/11/26 08:34:59;;;;;;;47.28;14.65;;;;;;;3.87;100.00;102683.53;5001212;28;20040;-82
2022/11/26 08:37:25;;;;;;;34.88;13.32;;;;;;;3.95;100.00;102685.78;5004095;28;20037;-82
2022/11/26 08:39:50;;;;;;;30.20;13.25;;;;;;;4.02;100.00;102684.59;5003635;28;20063;-81
2022/11/26 08:42:16;;;;;;;39.88;14.65;;;;;;;3.97;100.00;102678.84;4993540;28;20072;-80
2022/11/26 08:44:41;;;;;;;40.88;14.85;;;;;;;4.14;100.00;102685.78;4990710;28;20060;-81
2022/11/26 08:47:07;;;;;;;46.65;15.45;;;;;;;4.06;100.00;102688.69;4988944;28;20087;-80
2022/11/26 08:49:33;;;;;;;35.78;14.50;;;;;;;4.04;100.00;102694.81;5023338;28;20033;-81
2022/11/26 08:51:58;;;;;;;39.33;14.02;;;;;;;4.17;100.00;102698.50;5005373;28;20123;-81
2022/11/26 08:54:24;;;;;;;44.17;15.15;;;;;;;4.28;100.00;102700.59;4991874;28;20038;-79
2022/11/26 08:56:49;;;;;;;45.72;14.68;;;;;;;4.33;100.00;102706.34;5020162;28;20045;-80
2022/11/26 08:59:16;;;;;;;45.20;16.63;;;;;;;4.25;100.00;102703.31;5005287;28;20038;-81
2022/11/26 09:01:41;;;;;;;48.08;16.90;;;;;;;4.29;100.00;102707.41;4988242;28;20124;-81
2022/11/26 09:04:07;;;;;;;38.67;16.10;;;;;;;4.32;100.00;102709.84;5004996;28;20030;-81
2022/11/26 09:06:35;;;;;;;42.78;15.50;;;;;;;4.38;100.00;102704.41;5019794;28;20173;-81
2022/11/26 09:09:13;;;;;;;38.17;16.45;;;;;;;4.49;100.00;102702.19;5000257;28;20033;-81
2022/11/26 09:11:40;;;;;;;43.30;17.10;;;;;;;4.56;100.00;102704.47;4986484;28;20050;-81
2022/11/26 09:14:05;;;;;;;38.38;17.40;;;;;;;4.55;100.00;102702.81;5003377;28;20500;-81
2022/11/26 09:16:31;;;;;;;41.63;16.30;;;;;;;4.62;100.00;102704.22;5001891;28;20080;-81
2022/11/26 09:18:59;;;;;;;40.25;15.93;;;;;;;4.57;100.00;102699.28;5008467;28;20108;-81
2022/11/26 09:21:25;;;;;;;38.70;15.15;;;;;;;4.69;100.00;102700.47;5003551;28;20378;-80
2022/11/26 09:23:50;;;;;;;32.58;15.63;;;;;;;4.74;100.00;102695.09;5006227;28;20025;-80
2022/11/26 09:26:19;;;;;;;42.17;15.93;;;;;;;4.88;100.00;102697.88;5003940;28;20044;-80
2022/11/26 09:28:46;;;;;;;30.77;13.57;;;;;;;4.82;100.00;102698.13;5005750;28;20045;-80
2022/11/26 09:31:11;;;;;;;32.95;14.10;;;;;;;4.91;100.00;102705.41;4983892;28;20040;-80
2022/11/26 09:33:36;;;;;;;31.38;12.45;;;;;;;4.93;100.00;102710.50;4984411;28;20030;-80
2022/11/26 09:36:13;;;;;;;32.35;12.68;;;;;;;4.95;100.00;102709.50;4999606;28;20030;-79
2022/11/26 09:38:39;;;;;;;29.88;12.77;;;;;;;4.97;100.00;102717.16;5001299;28;20061;-80
2022/11/26 09:41:10;;;;;;;28.77;12.88;;;;;;;5.02;100.00;102708.31;5003284;28;20045;-80
2022/11/26 09:43:42;;;;;;;35.40;14.10;;;;;;;5.10;100.00;102705.38;5001798;28;20033;-80
2022/11/26 09:46:10;;;;;;;37.65;13.35;;;;;;;5.00;100.00;102702.41;5000161;28;20342;-79
2022/11/26 09:48:38;;;;;;;33.72;14.10;;;;;;;5.18;100.00;102705.00;5002806;28;20048;-79
2022/11/26 09:51:13;;;;;;;34.35;13.10;;;;;;;5.21;100.00;102705.69;5000234;28;20048;-80
2022/11/26 09:53:46;;;;;;;29.33;11.30;;;;;;;5.24;100.00;102710.69;5003556;28;20387;-79
2022/11/26 09:56:18;;;;;;;32.78;11.95;;;;;;;5.28;100.00;102707.97;5005044;28;20045;-80
2022/11/26 09:58:57;;;;;;;33.83;11.73;;;;;;;5.39;100.00;102711.69;5022508;28;20037;-81
2022/11/26 10:01:23;;;;;;;32.67;11.10;;;;;;;5.38;100.00;102706.59;5009134;28;20049;-80
2022/11/26 10:03:49;;;;;;;31.52;12.25;;;;;;;5.57;100.00;102707.34;5010800;28;20021;-81
2022/11/26 10:06:46;;;;;;;29.75;11.00;;;;;;;5.56;100.00;102708.28;5023423;28;20518;-82
2022/11/26 10:09:27;;;;;;;26.38;11.15;;;;;;;5.64;100.00;102707.88;5022837;28;20133;-80
2022/11/26 10:12:11;;;;;;;30.50;11.35;;;;;;;5.59;100.00;102705.53;5008926;28;20057;-80
2022/11/26 10:15:05;;;;;;;28.55;10.60;;;;;;;5.64;100.00;102710.47;5009161;28;20087;-80
2022/11/26 10:17:44;;;;;;;26.55;10.55;;;;;;;5.69;100.00;102720.50;5006891;28;20034;-80
2022/11/26 10:20:36;;;;;;;26.02;9.57;;;;;;;5.76;100.00;102727.03;5018940;28;20049;-81
2022/11/26 10:23:11;;;;;;;23.03;10.40;;;;;;;5.72;100.00;102717.78;5009378;28;20037;-80
2022/11/26 10:25:49;;;;;;;26.08;10.60;;;;;;;5.91;100.00;102708.22;4992558;28;21087;-80
2022/11/26 10:28:32;;;;;;;31.65;9.50;;;;;;;5.92;100.00;102709.88;5010113;28;20033;-80
2022/11/26 10:31:03;;;;;;;33.05;9.98;;;;;;;6.03;100.00;102705.06;5004609;28;20105;-80
2022/11/26 10:33:36;;;;;;;32.40;9.85;;;;;;;6.08;100.00;102709.94;4996726;28;20049;-80
2022/11/26 10:36:07;;;;;;;32.10;9.85;;;;;;;6.14;100.00;102701.94;5007005;28;20121;-79
2022/11/26 10:38:33;;;;;;;25.55;9.25;;;;;;;6.30;100.00;102696.78;5008626;28;20367;-79
2022/11/26 10:40:58;;;;;;;25.40;8.68;;;;;;;6.30;100.00;102704.50;5008112;28;20048;-79
2022/11/26 10:43:24;;;;;;;25.95;7.70;;;;;;;6.33;100.00;102706.94;4999014;28;20040;-79
2022/11/26 10:45:52;;;;;;;24.13;8.95;;;;;;;6.38;100.00;102701.53;5024326;28;20033;-79
2022/11/26 10:48:24;;;;;;;29.50;8.77;;;;;;;6.33;100.00;102703.50;5011187;28;20037;-79
2022/11/26 10:51:12;;;;;;;23.85;8.38;;;;;;;6.35;100.00;102699.13;5008245;28;20536;-79
2022/11/26 10:53:58;;;;;;;33.42;8.02;;;;;;;6.40;100.00;102704.84;5010865;28;20041;-78
2022/11/26 10:56:45;;;;;;;21.20;7.55;;;;;;;6.41;100.00;102693.63;4988792;28;20064;-79
2022/11/26 10:59:39;;;;;;;23.70;7.53;;;;;;;6.54;100.00;102693.81;5010241;28;20508;-78
2022/11/26 11:02:24;;;;;;;;;;;;;;;6.61;100.00;102693.38;5020516;28;20434;-78
2022/11/26 11:04:53;;;;;;;31.58;8.77;;;;;;;6.77;100.00;102689.97;4993126;28;19916;-79
2022/11/26 11:07:32;;;;;;;28.27;8.05;;;;;;;6.85;100.00;102684.38;5007312;28;20044;-78
2022/11/26 11:10:20;;;;;;;37.55;9.10;;;;;;;6.86;100.00;102688.63;5008609;28;20029;-79
2022/11/26 11:13:03;;;;;;;26.88;7.93;;;;;;;6.91;100.00;102692.63;5025912;28;20345;-79
2022/11/26 11:15:34;;;;;;;26.10;9.17;;;;;;;6.92;100.00;102693.44;4992897;28;20196;-78
2022/11/26 11:18:04;;;;;;;27.15;9.50;;;;;;;6.94;100.00;102689.84;5025196;28;20025;-79
2022/11/26 11:20:33;;;;;;;35.05;8.65;;;;;;;7.00;100.00;102686.09;4997784;28;20091;-79